sensor_id;sensor_type;location;lat;lon;timestamp;temperature;humidity
12922;DHT22;6528;48.086;16.282;2024-01-11T00:00:37;22.00;99.90
12922;DHT22;6528;48.086;16.282;2024-01-11T00:03:04;22.00;99.90
12922;DHT22;6528;48.086;16.282;2024-01-11T00:05:32;22.00;99.90
12922;DHT22;6528;48.086;16.282;2024-01-11T00:07:59;22.00;99.90
12922;DHT22;6528;48.086;16.282;2024-01-11T00:10:27;22.00;99.90
12922;DHT22;6528;48.086;16.282;2024-01-11T00:12:55;22.00;99.90
12922;DHT22;6528;48.086;16.282;2024-01-11T00:15:22;21.90;99.90
12922;DHT22;6528;48.086;16.282;2024-01-11T00:17:50;22.00;99.90
12922;DHT22;6528;48.086;16.282;2024-01-11T00:20:17;22.00;99.90
12922;DHT22;6528;48.086;16.282;2024-01-11T00:22:44;21.90;99.90
12922;DHT22;6528;48.086;16.282;2024-01-11T00:25:12;21.90;99.90
12922;DHT22;6528;48.086;16.282;2024-01-11T00:27:39;21.90;99.90
12922;DHT22;6528;48.086;16.282;2024-01-11T00:30:07;22.00;99.90
12922;DHT22;6528;48.086;16.282;2024-01-11T00:32:35;21.90;99.90
12922;DHT22;6528;48.086;16.282;2024-01-11T00:35:03;21.90;99.90
12922;DHT22;6528;48.086;16.282;2024-01-11T00:37:31;21.90;99.90
12922;DHT22;6528;48.086;16.282;2024-01-11T00:39:58;22.00;99.90
12922;DHT22;6528;48.086;16.282;2024-01-11T00:42:26;22.00;99.90
12922;DHT22;6528;48.086;16.282;2024-01-11T00:44:53;21.90;99.90
12922;DHT22;6528;48.086;16.282;2024-01-11T00:47:20;21.90;99.90
12922;DHT22;6528;48.086;16.282;2024-01-11T00:49:48;22.00;99.90
12922;DHT22;6528;48.086;16.282;2024-01-11T00:52:15;22.00;99.90
12922;DHT22;6528;48.086;16.282;2024-01-11T00:54:42;21.90;99.90
12922;DHT22;6528;48.086;16.282;2024-01-11T00:57:10;21.90;99.90
12922;DHT22;6528;48.086;16.282;2024-01-11T00:59:39;21.90;99.90
12922;DHT22;6528;48.086;16.282;2024-01-11T01:02:07;21.90;99.90
12922;DHT22;6528;48.086;16.282;2024-01-11T01:04:38;21.90;99.90
12922;DHT22;6528;48.086;16.282;2024-01-11T01:07:06;21.90;99.90
12922;DHT22;6528;48.086;16.282;2024-01-11T01:09:33;21.90;99.90
12922;DHT22;6528;48.086;16.282;2024-01-11T01:12:01;21.90;99.90
12922;DHT22;6528;48.086;16.282;2024-01-11T01:14:29;21.90;99.90
12922;DHT22;6528;48.086;16.282;2024-01-11T01:16:56;21.90;99.90
12922;DHT22;6528;48.086;16.282;2024-01-11T01:19:24;21.90;99.90
12922;DHT22;6528;48.086;16.282;2024-01-11T01:21:51;21.90;99.90
12922;DHT22;6528;48.086;16.282;2024-01-11T01:24:19;21.90;99.90
12922;DHT22;6528;48.086;16.282;2024-01-11T01:26:46;21.90;99.90
12922;DHT22;6528;48.086;16.282;2024-01-11T01:29:14;21.90;99.90
12922;DHT22;6528;48.086;16.282;2024-01-11T01:31:41;21.90;99.90
12922;DHT22;6528;48.086;16.282;2024-01-11T01:34:08;21.90;99.90
12922;DHT22;6528;48.086;16.282;2024-01-11T01:36:36;21.90;99.90
12922;DHT22;6528;48.086;16.282;2024-01-11T01:39:03;21.80;99.90
12922;DHT22;6528;48.086;16.282;2024-01-11T01:41:31;21.90;99.90
12922;DHT22;6528;48.086;16.282;2024-01-11T01:43:58;21.90;99.90
12922;DHT22;6528;48.086;16.282;2024-01-11T01:46:26;21.80;99.90
12922;DHT22;6528;48.086;16.282;2024-01-11T01:48:57;21.90;99.90
12922;DHT22;6528;48.086;16.282;2024-01-11T01:51:28;21.90;99.90
12922;DHT22;6528;48.086;16.282;2024-01-11T01:53:56;21.80;99.90
12922;DHT22;6528;48.086;16.282;2024-01-11T01:56:24;21.80;99.90
12922;DHT22;6528;48.086;16.282;2024-01-11T01:58:53;21.90;99.90
12922;DHT22;6528;48.086;16.282;2024-01-11T02:01:23;21.80;99.90
12922;DHT22;6528;48.086;16.282;2024-01-11T02:03:51;21.90;99.90
12922;DHT22;6528;48.086;16.282;2024-01-11T02:06:22;21.80;99.90
12922;DHT22;6528;48.086;16.282;2024-01-11T02:08:52;21.80;99.90
12922;DHT22;6528;48.086;16.282;2024-01-11T02:11:22;21.80;99.90
12922;DHT22;6528;48.086;16.282;2024-01-11T02:13:50;21.80;99.90
12922;DHT22;6528;48.086;16.282;2024-01-11T02:16:17;21.80;99.90
12922;DHT22;6528;48.086;16.282;2024-01-11T02:18:45;21.90;99.90
12922;DHT22;6528;48.086;16.282;2024-01-11T02:21:14;21.80;99.90
12922;DHT22;6528;48.086;16.282;2024-01-11T02:26:16;21.90;99.90
12922;DHT22;6528;48.086;16.282;2024-01-11T02:28:44;21.80;99.90
12922;DHT22;6528;48.086;16.282;2024-01-11T02:31:13;21.80;99.90
12922;DHT22;6528;48.086;16.282;2024-01-11T02:33:41;21.80;99.90
12922;DHT22;6528;48.086;16.282;2024-01-11T02:36:09;21.90;99.90
12922;DHT22;6528;48.086;16.282;2024-01-11T02:38:38;21.80;99.90
12922;DHT22;6528;48.086;16.282;2024-01-11T02:41:08;21.80;99.90
12922;DHT22;6528;48.086;16.282;2024-01-11T02:43:36;21.80;99.90
12922;DHT22;6528;48.086;16.282;2024-01-11T02:46:03;21.80;99.90
12922;DHT22;6528;48.086;16.282;2024-01-11T02:48:31;21.80;99.90
12922;DHT22;6528;48.086;16.282;2024-01-11T02:50:58;21.80;99.90
12922;DHT22;6528;48.086;16.282;2024-01-11T02:53:26;21.80;99.90
12922;DHT22;6528;48.086;16.282;2024-01-11T02:55:53;21.80;99.90
12922;DHT22;6528;48.086;16.282;2024-01-11T02:58:21;21.80;99.90
12922;DHT22;6528;48.086;16.282;2024-01-11T03:00:48;21.90;99.90
12922;DHT22;6528;48.086;16.282;2024-01-11T03:03:16;21.80;99.90
12922;DHT22;6528;48.086;16.282;2024-01-11T03:05:43;21.80;99.90
12922;DHT22;6528;48.086;16.282;2024-01-11T03:08:11;21.80;99.90
12922;DHT22;6528;48.086;16.282;2024-01-11T03:10:38;21.80;99.90
12922;DHT22;6528;48.086;16.282;2024-01-11T03:13:06;21.80;99.90
12922;DHT22;6528;48.086;16.282;2024-01-11T03:15:34;21.80;99.90
12922;DHT22;6528;48.086;16.282;2024-01-11T03:18:01;21.80;99.90
12922;DHT22;6528;48.086;16.282;2024-01-11T03:20:29;21.80;99.90
12922;DHT22;6528;48.086;16.282;2024-01-11T03:22:57;21.80;99.90
12922;DHT22;6528;48.086;16.282;2024-01-11T03:25:24;21.80;99.90
12922;DHT22;6528;48.086;16.282;2024-01-11T03:27:52;21.80;99.90
12922;DHT22;6528;48.086;16.282;2024-01-11T03:30:19;21.80;99.90
12922;DHT22;6528;48.086;16.282;2024-01-11T03:32:47;21.80;99.90
12922;DHT22;6528;48.086;16.282;2024-01-11T03:35:14;21.80;99.90
12922;DHT22;6528;48.086;16.282;2024-01-11T03:37:42;21.80;99.90
12922;DHT22;6528;48.086;16.282;2024-01-11T03:40:10;21.80;99.90
12922;DHT22;6528;48.086;16.282;2024-01-11T03:42:37;21.80;99.90
12922;DHT22;6528;48.086;16.282;2024-01-11T03:45:05;21.80;99.90
12922;DHT22;6528;48.086;16.282;2024-01-11T03:47:33;21.80;99.90
12922;DHT22;6528;48.086;16.282;2024-01-11T03:50:00;21.80;99.90
12922;DHT22;6528;48.086;16.282;2024-01-11T03:52:27;21.80;99.90
12922;DHT22;6528;48.086;16.282;2024-01-11T03:54:54;21.80;99.90
12922;DHT22;6528;48.086;16.282;2024-01-11T03:57:22;21.80;99.90
12922;DHT22;6528;48.086;16.282;2024-01-11T03:59:49;21.80;99.90
12922;DHT22;6528;48.086;16.282;2024-01-11T04:02:17;21.80;99.90
12922;DHT22;6528;48.086;16.282;2024-01-11T04:04:44;21.80;99.90
12922;DHT22;6528;48.086;16.282;2024-01-11T04:07:12;21.80;99.90
12922;DHT22;6528;48.086;16.282;2024-01-11T04:09:39;21.80;99.90
12922;DHT22;6528;48.086;16.282;2024-01-11T04:12:07;21.80;99.90
12922;DHT22;6528;48.086;16.282;2024-01-11T04:14:38;21.80;99.90
12922;DHT22;6528;48.086;16.282;2024-01-11T04:17:06;21.80;99.90
12922;DHT22;6528;48.086;16.282;2024-01-11T04:19:34;21.80;99.90
12922;DHT22;6528;48.086;16.282;2024-01-11T04:22:01;21.80;99.90
12922;DHT22;6528;48.086;16.282;2024-01-11T04:24:29;21.90;99.90
12922;DHT22;6528;48.086;16.282;2024-01-11T04:26:56;21.80;99.90
12922;DHT22;6528;48.086;16.282;2024-01-11T04:29:24;21.80;99.90
12922;DHT22;6528;48.086;16.282;2024-01-11T04:31:51;21.80;99.90
12922;DHT22;6528;48.086;16.282;2024-01-11T04:34:18;21.80;99.90
12922;DHT22;6528;48.086;16.282;2024-01-11T04:36:46;21.80;99.90
12922;DHT22;6528;48.086;16.282;2024-01-11T04:39:13;21.80;99.90
12922;DHT22;6528;48.086;16.282;2024-01-11T04:41:40;21.80;99.90
12922;DHT22;6528;48.086;16.282;2024-01-11T04:44:08;21.80;99.90
12922;DHT22;6528;48.086;16.282;2024-01-11T04:46:35;21.80;99.90
12922;DHT22;6528;48.086;16.282;2024-01-11T04:49:02;21.80;99.90
12922;DHT22;6528;48.086;16.282;2024-01-11T04:51:30;21.80;99.90
12922;DHT22;6528;48.086;16.282;2024-01-11T04:53:57;21.80;99.90
12922;DHT22;6528;48.086;16.282;2024-01-11T04:56:25;21.80;99.90
12922;DHT22;6528;48.086;16.282;2024-01-11T04:58:52;21.80;99.90
12922;DHT22;6528;48.086;16.282;2024-01-11T05:01:19;21.80;99.90
12922;DHT22;6528;48.086;16.282;2024-01-11T05:03:47;21.80;99.90
12922;DHT22;6528;48.086;16.282;2024-01-11T05:06:16;21.80;99.90
12922;DHT22;6528;48.086;16.282;2024-01-11T05:08:47;21.80;99.90
12922;DHT22;6528;48.086;16.282;2024-01-11T05:11:19;21.80;99.90
12922;DHT22;6528;48.086;16.282;2024-01-11T05:13:48;21.80;99.90
12922;DHT22;6528;48.086;16.282;2024-01-11T05:18:47;21.80;99.90
12922;DHT22;6528;48.086;16.282;2024-01-11T05:21:15;21.80;99.90
12922;DHT22;6528;48.086;16.282;2024-01-11T05:23:42;21.80;99.90
12922;DHT22;6528;48.086;16.282;2024-01-11T05:26:10;21.80;99.90
12922;DHT22;6528;48.086;16.282;2024-01-11T05:28:37;21.80;99.90
12922;DHT22;6528;48.086;16.282;2024-01-11T05:31:10;21.80;99.90
12922;DHT22;6528;48.086;16.282;2024-01-11T05:33:38;21.80;99.90
12922;DHT22;6528;48.086;16.282;2024-01-11T05:36:06;21.80;99.90
12922;DHT22;6528;48.086;16.282;2024-01-11T05:38:34;21.80;99.90
12922;DHT22;6528;48.086;16.282;2024-01-11T05:41:02;21.80;99.90
12922;DHT22;6528;48.086;16.282;2024-01-11T05:43:30;21.80;99.90
12922;DHT22;6528;48.086;16.282;2024-01-11T05:45:57;21.80;99.90
12922;DHT22;6528;48.086;16.282;2024-01-11T05:48:25;21.80;99.90
12922;DHT22;6528;48.086;16.282;2024-01-11T05:50:52;21.80;99.90
12922;DHT22;6528;48.086;16.282;2024-01-11T05:53:20;21.80;99.90
12922;DHT22;6528;48.086;16.282;2024-01-11T05:55:48;21.80;99.90
12922;DHT22;6528;48.086;16.282;2024-01-11T05:58:18;21.80;99.90
12922;DHT22;6528;48.086;16.282;2024-01-11T06:00:47;21.80;99.90
12922;DHT22;6528;48.086;16.282;2024-01-11T06:03:14;21.80;99.90
12922;DHT22;6528;48.086;16.282;2024-01-11T06:05:42;21.80;99.90
12922;DHT22;6528;48.086;16.282;2024-01-11T06:08:10;21.80;99.90
12922;DHT22;6528;48.086;16.282;2024-01-11T06:10:38;21.80;99.90
12922;DHT22;6528;48.086;16.282;2024-01-11T06:13:05;21.80;99.90
12922;DHT22;6528;48.086;16.282;2024-01-11T06:15:32;21.80;99.90
12922;DHT22;6528;48.086;16.282;2024-01-11T06:18:00;21.80;99.90
12922;DHT22;6528;48.086;16.282;2024-01-11T06:20:28;21.90;99.90
12922;DHT22;6528;48.086;16.282;2024-01-11T06:22:55;21.80;99.90
12922;DHT22;6528;48.086;16.282;2024-01-11T06:25:23;21.80;99.90
12922;DHT22;6528;48.086;16.282;2024-01-11T06:27:50;21.80;99.90
12922;DHT22;6528;48.086;16.282;2024-01-11T06:30:18;21.80;99.90
12922;DHT22;6528;48.086;16.282;2024-01-11T06:32:45;21.80;99.90
12922;DHT22;6528;48.086;16.282;2024-01-11T06:35:13;21.80;99.90
12922;DHT22;6528;48.086;16.282;2024-01-11T06:37:40;21.80;99.90
12922;DHT22;6528;48.086;16.282;2024-01-11T06:40:08;21.80;99.90
12922;DHT22;6528;48.086;16.282;2024-01-11T06:42:35;21.90;99.90
12922;DHT22;6528;48.086;16.282;2024-01-11T06:45:03;21.90;99.90
12922;DHT22;6528;48.086;16.282;2024-01-11T06:47:30;21.80;99.90
12922;DHT22;6528;48.086;16.282;2024-01-11T06:49:58;21.80;99.90
12922;DHT22;6528;48.086;16.282;2024-01-11T06:52:26;21.90;99.90
12922;DHT22;6528;48.086;16.282;2024-01-11T06:54:53;21.90;99.90
12922;DHT22;6528;48.086;16.282;2024-01-11T06:57:21;21.90;99.90
12922;DHT22;6528;48.086;16.282;2024-01-11T06:59:48;21.90;99.90
12922;DHT22;6528;48.086;16.282;2024-01-11T07:02:18;21.90;99.90
12922;DHT22;6528;48.086;16.282;2024-01-11T07:04:45;21.90;99.90
12922;DHT22;6528;48.086;16.282;2024-01-11T07:07:12;22.00;99.90
12922;DHT22;6528;48.086;16.282;2024-01-11T07:09:40;22.00;99.90
12922;DHT22;6528;48.086;16.282;2024-01-11T07:12:07;22.00;99.90
12922;DHT22;6528;48.086;16.282;2024-01-11T07:14:35;21.90;99.90
12922;DHT22;6528;48.086;16.282;2024-01-11T07:17:03;22.00;99.90
12922;DHT22;6528;48.086;16.282;2024-01-11T07:19:31;22.00;99.90
12922;DHT22;6528;48.086;16.282;2024-01-11T07:21:59;22.00;99.90
12922;DHT22;6528;48.086;16.282;2024-01-11T07:24:26;22.00;99.90
12922;DHT22;6528;48.086;16.282;2024-01-11T07:26:54;22.00;99.90
12922;DHT22;6528;48.086;16.282;2024-01-11T07:29:21;22.00;99.90
12922;DHT22;6528;48.086;16.282;2024-01-11T07:31:50;22.00;99.90
12922;DHT22;6528;48.086;16.282;2024-01-11T07:34:18;22.00;99.90
12922;DHT22;6528;48.086;16.282;2024-01-11T07:36:45;22.10;99.90
12922;DHT22;6528;48.086;16.282;2024-01-11T07:39:13;22.10;99.90
12922;DHT22;6528;48.086;16.282;2024-01-11T07:41:41;22.10;99.90
12922;DHT22;6528;48.086;16.282;2024-01-11T07:44:09;22.10;99.90
12922;DHT22;6528;48.086;16.282;2024-01-11T07:46:36;22.10;99.90
12922;DHT22;6528;48.086;16.282;2024-01-11T07:49:15;22.10;99.90
12922;DHT22;6528;48.086;16.282;2024-01-11T07:51:43;22.10;99.90
12922;DHT22;6528;48.086;16.282;2024-01-11T07:54:10;22.10;99.90
12922;DHT22;6528;48.086;16.282;2024-01-11T07:56:38;22.10;99.90
12922;DHT22;6528;48.086;16.282;2024-01-11T07:59:05;22.10;99.90
12922;DHT22;6528;48.086;16.282;2024-01-11T08:01:33;22.10;99.90
12922;DHT22;6528;48.086;16.282;2024-01-11T08:04:02;22.20;99.90
12922;DHT22;6528;48.086;16.282;2024-01-11T08:06:30;22.10;99.90
12922;DHT22;6528;48.086;16.282;2024-01-11T08:08:57;22.20;99.90
12922;DHT22;6528;48.086;16.282;2024-01-11T08:11:25;22.20;99.90
12922;DHT22;6528;48.086;16.282;2024-01-11T08:13:56;22.20;99.90
12922;DHT22;6528;48.086;16.282;2024-01-11T08:16:24;22.20;99.90
12922;DHT22;6528;48.086;16.282;2024-01-11T08:18:51;22.20;99.90
12922;DHT22;6528;48.086;16.282;2024-01-11T08:21:19;22.20;99.90
12922;DHT22;6528;48.086;16.282;2024-01-11T08:23:46;22.30;99.90
12922;DHT22;6528;48.086;16.282;2024-01-11T08:26:16;22.30;99.90
12922;DHT22;6528;48.086;16.282;2024-01-11T08:28:46;22.30;99.90
12922;DHT22;6528;48.086;16.282;2024-01-11T08:31:13;22.40;99.90
12922;DHT22;6528;48.086;16.282;2024-01-11T08:33:41;22.40;99.90
12922;DHT22;6528;48.086;16.282;2024-01-11T08:36:09;22.50;99.90
12922;DHT22;6528;48.086;16.282;2024-01-11T08:38:37;22.50;99.90
12922;DHT22;6528;48.086;16.282;2024-01-11T08:41:04;22.60;99.90
12922;DHT22;6528;48.086;16.282;2024-01-11T08:43:32;22.70;99.90
12922;DHT22;6528;48.086;16.282;2024-01-11T08:46:00;22.80;99.90
12922;DHT22;6528;48.086;16.282;2024-01-11T08:48:29;22.80;99.90
12922;DHT22;6528;48.086;16.282;2024-01-11T08:50:56;22.90;99.90
12922;DHT22;6528;48.086;16.282;2024-01-11T08:53:24;22.90;99.90
12922;DHT22;6528;48.086;16.282;2024-01-11T08:55:51;23.00;99.90
12922;DHT22;6528;48.086;16.282;2024-01-11T08:58:20;23.00;99.90
12922;DHT22;6528;48.086;16.282;2024-01-11T09:00:47;23.00;99.90
12922;DHT22;6528;48.086;16.282;2024-01-11T09:03:15;23.10;99.90
12922;DHT22;6528;48.086;16.282;2024-01-11T09:05:44;23.10;99.90
12922;DHT22;6528;48.086;16.282;2024-01-11T09:08:12;23.10;99.90
12922;DHT22;6528;48.086;16.282;2024-01-11T09:10:39;23.20;99.90
12922;DHT22;6528;48.086;16.282;2024-01-11T09:13:09;23.20;99.90
12922;DHT22;6528;48.086;16.282;2024-01-11T09:15:38;23.20;99.90
12922;DHT22;6528;48.086;16.282;2024-01-11T09:18:06;23.20;99.90
12922;DHT22;6528;48.086;16.282;2024-01-11T09:20:34;23.20;99.90
12922;DHT22;6528;48.086;16.282;2024-01-11T09:23:02;23.30;99.90
12922;DHT22;6528;48.086;16.282;2024-01-11T09:25:31;23.30;1.00
12922;DHT22;6528;48.086;16.282;2024-01-11T09:27:59;23.30;1.00
12922;DHT22;6528;48.086;16.282;2024-01-11T09:30:26;23.30;99.90
12922;DHT22;6528;48.086;16.282;2024-01-11T09:32:54;23.30;99.90
12922;DHT22;6528;48.086;16.282;2024-01-11T09:35:23;23.40;99.90
12922;DHT22;6528;48.086;16.282;2024-01-11T09:37:51;23.40;99.90
12922;DHT22;6528;48.086;16.282;2024-01-11T09:40:19;23.40;99.90
12922;DHT22;6528;48.086;16.282;2024-01-11T09:42:46;23.50;99.90
12922;DHT22;6528;48.086;16.282;2024-01-11T09:45:15;23.50;99.90
12922;DHT22;6528;48.086;16.282;2024-01-11T09:47:46;23.60;99.90
12922;DHT22;6528;48.086;16.282;2024-01-11T09:50:15;23.60;99.90
12922;DHT22;6528;48.086;16.282;2024-01-11T09:52:46;23.60;1.00
12922;DHT22;6528;48.086;16.282;2024-01-11T09:55:17;23.60;1.00
12922;DHT22;6528;48.086;16.282;2024-01-11T09:57:51;23.70;1.00
12922;DHT22;6528;48.086;16.282;2024-01-11T10:00:22;23.70;1.00
12922;DHT22;6528;48.086;16.282;2024-01-11T10:02:50;23.70;1.00
12922;DHT22;6528;48.086;16.282;2024-01-11T10:05:19;23.70;1.00
12922;DHT22;6528;48.086;16.282;2024-01-11T10:07:46;23.70;1.00
12922;DHT22;6528;48.086;16.282;2024-01-11T10:10:14;23.70;1.00
12922;DHT22;6528;48.086;16.282;2024-01-11T10:12:43;23.70;1.00
12922;DHT22;6528;48.086;16.282;2024-01-11T10:15:10;23.70;1.00
12922;DHT22;6528;48.086;16.282;2024-01-11T10:17:44;23.70;1.00
12922;DHT22;6528;48.086;16.282;2024-01-11T10:20:13;23.70;94.40
12922;DHT22;6528;48.086;16.282;2024-01-11T10:22:42;23.60;1.00
12922;DHT22;6528;48.086;16.282;2024-01-11T10:25:14;23.70;1.00
12922;DHT22;6528;48.086;16.282;2024-01-11T10:27:44;23.60;1.00
12922;DHT22;6528;48.086;16.282;2024-01-11T10:30:14;23.70;1.00
12922;DHT22;6528;48.086;16.282;2024-01-11T10:32:44;23.70;99.90
12922;DHT22;6528;48.086;16.282;2024-01-11T10:35:13;23.60;1.00
12922;DHT22;6528;48.086;16.282;2024-01-11T10:37:41;23.70;1.00
12922;DHT22;6528;48.086;16.282;2024-01-11T10:40:09;23.70;1.00
12922;DHT22;6528;48.086;16.282;2024-01-11T10:42:43;23.70;1.00
12922;DHT22;6528;48.086;16.282;2024-01-11T10:45:18;23.70;1.00
12922;DHT22;6528;48.086;16.282;2024-01-11T10:50:22;23.60;1.00
12922;DHT22;6528;48.086;16.282;2024-01-11T10:53:03;23.60;1.00
12922;DHT22;6528;48.086;16.282;2024-01-11T10:55:33;23.60;1.00
12922;DHT22;6528;48.086;16.282;2024-01-11T10:58:01;23.60;1.00
12922;DHT22;6528;48.086;16.282;2024-01-11T11:00:29;23.60;1.00
12922;DHT22;6528;48.086;16.282;2024-01-11T11:03:01;23.60;1.00
12922;DHT22;6528;48.086;16.282;2024-01-11T11:05:30;23.50;1.00
12922;DHT22;6528;48.086;16.282;2024-01-11T11:08:01;23.50;1.00
12922;DHT22;6528;48.086;16.282;2024-01-11T11:10:30;23.50;1.00
12922;DHT22;6528;48.086;16.282;2024-01-11T11:12:59;23.50;1.00
12922;DHT22;6528;48.086;16.282;2024-01-11T11:15:27;23.50;99.90
12922;DHT22;6528;48.086;16.282;2024-01-11T11:17:56;23.50;1.00
12922;DHT22;6528;48.086;16.282;2024-01-11T11:20:25;23.50;1.00
12922;DHT22;6528;48.086;16.282;2024-01-11T11:23:08;23.50;1.00
12922;DHT22;6528;48.086;16.282;2024-01-11T11:25:42;23.50;1.00
12922;DHT22;6528;48.086;16.282;2024-01-11T11:28:12;23.40;1.00
12922;DHT22;6528;48.086;16.282;2024-01-11T11:30:41;23.40;1.00
12922;DHT22;6528;48.086;16.282;2024-01-11T11:33:20;23.40;99.90
12922;DHT22;6528;48.086;16.282;2024-01-11T11:35:52;23.40;1.00
12922;DHT22;6528;48.086;16.282;2024-01-11T11:38:22;23.40;1.00
12922;DHT22;6528;48.086;16.282;2024-01-11T11:40:52;23.40;1.00
12922;DHT22;6528;48.086;16.282;2024-01-11T11:43:23;23.40;1.00
12922;DHT22;6528;48.086;16.282;2024-01-11T11:45:52;23.40;1.00
12922;DHT22;6528;48.086;16.282;2024-01-11T11:51:06;23.30;1.00
12922;DHT22;6528;48.086;16.282;2024-01-11T11:53:35;23.30;1.00
12922;DHT22;6528;48.086;16.282;2024-01-11T11:56:03;23.30;34.60
12922;DHT22;6528;48.086;16.282;2024-01-11T11:58:32;23.30;1.00
12922;DHT22;6528;48.086;16.282;2024-01-11T12:01:01;23.30;1.00
12922;DHT22;6528;48.086;16.282;2024-01-11T12:03:40;23.30;1.00
12922;DHT22;6528;48.086;16.282;2024-01-11T12:06:10;23.30;1.00
12922;DHT22;6528;48.086;16.282;2024-01-11T12:08:42;23.30;1.00
12922;DHT22;6528;48.086;16.282;2024-01-11T12:11:19;23.30;99.90
12922;DHT22;6528;48.086;16.282;2024-01-11T12:13:50;23.30;1.00
12922;DHT22;6528;48.086;16.282;2024-01-11T12:16:19;23.20;99.90
12922;DHT22;6528;48.086;16.282;2024-01-11T12:18:49;23.20;1.00
12922;DHT22;6528;48.086;16.282;2024-01-11T12:21:17;23.20;1.00
12922;DHT22;6528;48.086;16.282;2024-01-11T12:23:44;23.20;1.00
12922;DHT22;6528;48.086;16.282;2024-01-11T12:26:13;23.20;1.00
12922;DHT22;6528;48.086;16.282;2024-01-11T12:28:42;23.20;1.00
12922;DHT22;6528;48.086;16.282;2024-01-11T12:31:12;23.20;1.00
12922;DHT22;6528;48.086;16.282;2024-01-11T12:33:40;23.20;1.00
12922;DHT22;6528;48.086;16.282;2024-01-11T12:36:09;23.20;99.90
12922;DHT22;6528;48.086;16.282;2024-01-11T12:38:37;23.20;99.90
12922;DHT22;6528;48.086;16.282;2024-01-11T12:41:06;23.20;99.90
12922;DHT22;6528;48.086;16.282;2024-01-11T12:43:35;23.20;99.90
12922;DHT22;6528;48.086;16.282;2024-01-11T12:46:02;23.20;99.90
12922;DHT22;6528;48.086;16.282;2024-01-11T12:48:30;23.10;99.90
12922;DHT22;6528;48.086;16.282;2024-01-11T12:50:58;23.10;99.90
12922;DHT22;6528;48.086;16.282;2024-01-11T12:53:45;23.20;99.90
12922;DHT22;6528;48.086;16.282;2024-01-11T12:56:15;23.10;99.90
12922;DHT22;6528;48.086;16.282;2024-01-11T12:58:43;23.10;99.90
12922;DHT22;6528;48.086;16.282;2024-01-11T13:01:10;23.10;99.90
12922;DHT22;6528;48.086;16.282;2024-01-11T13:03:43;23.10;99.90
12922;DHT22;6528;48.086;16.282;2024-01-11T13:06:10;23.10;99.90
12922;DHT22;6528;48.086;16.282;2024-01-11T13:08:39;23.00;99.90
12922;DHT22;6528;48.086;16.282;2024-01-11T13:11:07;23.00;99.90
12922;DHT22;6528;48.086;16.282;2024-01-11T13:13:36;23.00;99.90
12922;DHT22;6528;48.086;16.282;2024-01-11T13:16:04;23.00;99.90
12922;DHT22;6528;48.086;16.282;2024-01-11T13:18:38;23.00;99.90
12922;DHT22;6528;48.086;16.282;2024-01-11T13:21:05;23.00;99.90
12922;DHT22;6528;48.086;16.282;2024-01-11T13:23:37;22.90;99.90
12922;DHT22;6528;48.086;16.282;2024-01-11T13:26:06;22.90;99.90
12922;DHT22;6528;48.086;16.282;2024-01-11T13:28:34;22.90;99.90
12922;DHT22;6528;48.086;16.282;2024-01-11T13:31:02;22.90;99.90
12922;DHT22;6528;48.086;16.282;2024-01-11T13:33:30;22.90;99.90
12922;DHT22;6528;48.086;16.282;2024-01-11T13:35:57;22.90;99.90
12922;DHT22;6528;48.086;16.282;2024-01-11T13:38:25;22.90;99.90
12922;DHT22;6528;48.086;16.282;2024-01-11T13:40:53;22.90;99.90
12922;DHT22;6528;48.086;16.282;2024-01-11T13:43:20;22.80;99.90
12922;DHT22;6528;48.086;16.282;2024-01-11T13:45:48;22.80;99.90
12922;DHT22;6528;48.086;16.282;2024-01-11T13:48:16;22.90;99.90
12922;DHT22;6528;48.086;16.282;2024-01-11T13:50:44;22.80;99.90
12922;DHT22;6528;48.086;16.282;2024-01-11T13:53:12;22.80;99.90
12922;DHT22;6528;48.086;16.282;2024-01-11T13:55:39;22.80;99.90
12922;DHT22;6528;48.086;16.282;2024-01-11T13:58:08;22.80;99.90
12922;DHT22;6528;48.086;16.282;2024-01-11T14:00:35;22.80;99.90
12922;DHT22;6528;48.086;16.282;2024-01-11T14:03:03;22.80;99.90
12922;DHT22;6528;48.086;16.282;2024-01-11T14:05:33;22.80;99.90
12922;DHT22;6528;48.086;16.282;2024-01-11T14:08:01;22.80;99.90
12922;DHT22;6528;48.086;16.282;2024-01-11T14:10:33;22.70;99.90
12922;DHT22;6528;48.086;16.282;2024-01-11T14:13:01;22.70;99.90
12922;DHT22;6528;48.086;16.282;2024-01-11T14:15:29;22.70;1.00
12922;DHT22;6528;48.086;16.282;2024-01-11T14:17:58;22.70;99.90
12922;DHT22;6528;48.086;16.282;2024-01-11T14:20:26;22.70;99.90
12922;DHT22;6528;48.086;16.282;2024-01-11T14:22:54;22.70;99.90
12922;DHT22;6528;48.086;16.282;2024-01-11T14:25:23;22.70;99.90
12922;DHT22;6528;48.086;16.282;2024-01-11T14:27:53;22.60;99.90
12922;DHT22;6528;48.086;16.282;2024-01-11T14:30:21;22.60;99.90
12922;DHT22;6528;48.086;16.282;2024-01-11T14:32:50;22.60;99.90
12922;DHT22;6528;48.086;16.282;2024-01-11T14:35:18;22.60;99.90
12922;DHT22;6528;48.086;16.282;2024-01-11T14:37:46;22.60;99.90
12922;DHT22;6528;48.086;16.282;2024-01-11T14:40:13;22.60;99.90
12922;DHT22;6528;48.086;16.282;2024-01-11T14:42:41;22.60;99.90
12922;DHT22;6528;48.086;16.282;2024-01-11T14:45:09;22.60;99.90
12922;DHT22;6528;48.086;16.282;2024-01-11T14:47:36;22.60;99.90
12922;DHT22;6528;48.086;16.282;2024-01-11T14:50:05;22.60;99.90
12922;DHT22;6528;48.086;16.282;2024-01-11T14:52:38;22.60;99.90
12922;DHT22;6528;48.086;16.282;2024-01-11T14:55:09;22.60;99.90
12922;DHT22;6528;48.086;16.282;2024-01-11T14:57:39;22.60;99.90
12922;DHT22;6528;48.086;16.282;2024-01-11T15:00:08;22.50;99.90
12922;DHT22;6528;48.086;16.282;2024-01-11T15:02:37;22.60;99.90
12922;DHT22;6528;48.086;16.282;2024-01-11T15:05:05;22.50;99.90
12922;DHT22;6528;48.086;16.282;2024-01-11T15:07:33;22.60;99.90
12922;DHT22;6528;48.086;16.282;2024-01-11T15:10:01;22.60;99.90
12922;DHT22;6528;48.086;16.282;2024-01-11T15:12:28;22.50;99.90
12922;DHT22;6528;48.086;16.282;2024-01-11T15:14:55;22.50;99.90
12922;DHT22;6528;48.086;16.282;2024-01-11T15:17:23;22.50;99.90
12922;DHT22;6528;48.086;16.282;2024-01-11T15:19:50;22.50;99.90
12922;DHT22;6528;48.086;16.282;2024-01-11T15:22:18;22.50;99.90
12922;DHT22;6528;48.086;16.282;2024-01-11T15:24:45;22.50;99.90
12922;DHT22;6528;48.086;16.282;2024-01-11T15:27:21;22.50;99.90
12922;DHT22;6528;48.086;16.282;2024-01-11T15:29:49;22.50;99.90
12922;DHT22;6528;48.086;16.282;2024-01-11T15:32:17;22.50;99.90
12922;DHT22;6528;48.086;16.282;2024-01-11T15:34:45;22.50;99.90
12922;DHT22;6528;48.086;16.282;2024-01-11T15:37:13;22.50;99.90
12922;DHT22;6528;48.086;16.282;2024-01-11T15:39:40;22.40;99.90
12922;DHT22;6528;48.086;16.282;2024-01-11T15:42:08;22.40;99.90
12922;DHT22;6528;48.086;16.282;2024-01-11T15:44:35;22.50;99.90
12922;DHT22;6528;48.086;16.282;2024-01-11T15:47:05;22.50;99.90
12922;DHT22;6528;48.086;16.282;2024-01-11T15:49:33;22.50;99.90